sensor_id;sensor_type;location;lat;lon;timestamp;pressure;altitude;pressure_sealevel;temperature;humidity
48041;BME280;33815;48.386;11.738;2024-03-25T00:00:38;95720.94;;;2.54;100.00
48041;BME280;33815;48.386;11.738;2024-03-25T00:03:03;95707.59;;;2.49;100.00
48041;BME280;33815;48.386;11.738;2024-03-25T00:05:29;95721.66;;;2.45;100.00
48041;BME280;33815;48.386;11.738;2024-03-25T00:07:56;95704.81;;;2.41;100.00
48041;BME280;33815;48.386;11.738;2024-03-25T00:10:21;95705.78;;;2.40;100.00
48041;BME280;33815;48.386;11.738;2024-03-25T00:12:47;95702.75;;;2.35;100.00
48041;BME280;33815;48.386;11.738;2024-03-25T00:15:17;95707.84;;;2.46;100.00
48041;BME280;33815;48.386;11.738;2024-03-25T00:17:44;95690.94;;;2.32;100.00
48041;BME280;33815;48.386;11.738;2024-03-25T00:20:10;95698.28;;;2.37;100.00
48041;BME280;33815;48.386;11.738;2024-03-25T00:22:35;95703.44;;;2.37;100.00
48041;BME280;33815;48.386;11.738;2024-03-25T00:25:00;95700.19;;;2.35;100.00
48041;BME280;33815;48.386;11.738;2024-03-25T00:27:26;95702.50;;;2.38;100.00
48041;BME280;33815;48.386;11.738;2024-03-25T00:29:51;95686.59;;;2.33;100.00
48041;BME280;33815;48.386;11.738;2024-03-25T00:32:17;95691.28;;;2.39;100.00
48041;BME280;33815;48.386;11.738;2024-03-25T00:34:42;95683.94;;;2.34;100.00
48041;BME280;33815;48.386;11.738;2024-03-25T00:37:07;95673.41;;;2.37;100.00
48041;BME280;33815;48.386;11.738;2024-03-25T00:39:32;95688.00;;;2.37;100.00
48041;BME280;33815;48.386;11.738;2024-03-25T00:41:59;95702.34;;;2.51;100.00
48041;BME280;33815;48.386;11.738;2024-03-25T00:44:24;95689.75;;;2.36;100.00
48041;BME280;33815;48.386;11.738;2024-03-25T00:46:50;95678.88;;;2.33;100.00
48041;BME280;33815;48.386;11.738;2024-03-25T00:49:16;95696.97;;;2.43;100.00
48041;BME280;33815;48.386;11.738;2024-03-25T00:51:41;95700.38;;;2.43;100.00
48041;BME280;33815;48.386;11.738;2024-03-25T00:54:07;95683.72;;;2.26;100.00
48041;BME280;33815;48.386;11.738;2024-03-25T00:56:32;95707.31;;;2.31;100.00
48041;BME280;33815;48.386;11.738;2024-03-25T00:58:57;95702.38;;;2.39;100.00
48041;BME280;33815;48.386;11.738;2024-03-25T01:01:27;95696.56;;;2.37;100.00
48041;BME280;33815;48.386;11.738;2024-03-25T01:03:52;95678.47;;;2.28;100.00
48041;BME280;33815;48.386;11.738;2024-03-25T01:06:17;95695.53;;;2.29;100.00
48041;BME280;33815;48.386;11.738;2024-03-25T01:08:43;95680.78;;;2.31;100.00
48041;BME280;33815;48.386;11.738;2024-03-25T01:11:08;95686.50;;;2.23;100.00
48041;BME280;33815;48.386;11.738;2024-03-25T01:13:34;95695.06;;;2.23;100.00
48041;BME280;33815;48.386;11.738;2024-03-25T01:15:59;95690.97;;;2.21;100.00
48041;BME280;33815;48.386;11.738;2024-03-25T01:18:24;95694.44;;;2.31;100.00
48041;BME280;33815;48.386;11.738;2024-03-25T01:20:49;95695.75;;;2.26;100.00
48041;BME280;33815;48.386;11.738;2024-03-25T01:23:15;95694.56;;;2.30;100.00
48041;BME280;33815;48.386;11.738;2024-03-25T01:25:40;95692.72;;;2.32;100.00
48041;BME280;33815;48.386;11.738;2024-03-25T01:28:05;95688.25;;;2.34;100.00
48041;BME280;33815;48.386;11.738;2024-03-25T01:30:31;95692.91;;;2.40;100.00
48041;BME280;33815;48.386;11.738;2024-03-25T01:32:57;95688.22;;;2.45;100.00
48041;BME280;33815;48.386;11.738;2024-03-25T01:35:22;95674.66;;;2.43;100.00
48041;BME280;33815;48.386;11.738;2024-03-25T01:37:48;95676.91;;;2.36;100.00
48041;BME280;33815;48.386;11.738;2024-03-25T01:40:14;95665.59;;;2.28;100.00
48041;BME280;33815;48.386;11.738;2024-03-25T01:42:39;95683.56;;;2.39;100.00
48041;BME280;33815;48.386;11.738;2024-03-25T01:45:06;95692.22;;;2.38;100.00
48041;BME280;33815;48.386;11.738;2024-03-25T01:47:32;95701.19;;;2.44;100.00
48041;BME280;33815;48.386;11.738;2024-03-25T01:50:00;95673.97;;;2.41;100.00
48041;BME280;33815;48.386;11.738;2024-03-25T01:52:27;95689.72;;;2.48;100.00
48041;BME280;33815;48.386;11.738;2024-03-25T01:54:53;95696.38;;;2.50;100.00
48041;BME280;33815;48.386;11.738;2024-03-25T01:57:19;95698.03;;;2.51;100.00
48041;BME280;33815;48.386;11.738;2024-03-25T01:59:45;95690.78;;;2.45;100.00
48041;BME280;33815;48.386;11.738;2024-03-25T02:02:11;95685.81;;;2.32;100.00
48041;BME280;33815;48.386;11.738;2024-03-25T02:04:39;95689.50;;;2.39;100.00
48041;BME280;33815;48.386;11.738;2024-03-25T02:07:07;95707.28;;;2.43;100.00
48041;BME280;33815;48.386;11.738;2024-03-25T02:09:33;95690.94;;;2.32;100.00
48041;BME280;33815;48.386;11.738;2024-03-25T02:11:58;95694.13;;;2.25;100.00
48041;BME280;33815;48.386;11.738;2024-03-25T02:14:24;95699.84;;;2.28;100.00
48041;BME280;33815;48.386;11.738;2024-03-25T02:16:49;95703.25;;;2.29;100.00
48041;BME280;33815;48.386;11.738;2024-03-25T02:19:15;95693.53;;;2.21;100.00
48041;BME280;33815;48.386;11.738;2024-03-25T02:21:41;95683.28;;;2.10;100.00
48041;BME280;33815;48.386;11.738;2024-03-25T02:24:09;95703.25;;;2.17;100.00
48041;BME280;33815;48.386;11.738;2024-03-25T02:26:35;95693.47;;;2.00;100.00
48041;BME280;33815;48.386;11.738;2024-03-25T02:29:01;95686.94;;;1.84;100.00
48041;BME280;33815;48.386;11.738;2024-03-25T02:31:27;95686.94;;;1.84;100.00
48041;BME280;33815;48.386;11.738;2024-03-25T02:33:52;95692.88;;;1.96;100.00
48041;BME280;33815;48.386;11.738;2024-03-25T02:36:17;95677.34;;;1.86;100.00
48041;BME280;33815;48.386;11.738;2024-03-25T02:38:43;95699.66;;;1.97;100.00
48041;BME280;33815;48.386;11.738;2024-03-25T02:41:08;95689.97;;;1.90;100.00
48041;BME280;33815;48.386;11.738;2024-03-25T02:43:34;95690.91;;;1.88;100.00
48041;BME280;33815;48.386;11.738;2024-03-25T02:45:59;95686.56;;;1.89;100.00
48041;BME280;33815;48.386;11.738;2024-03-25T02:48:25;95700.00;;;2.04;100.00
48041;BME280;33815;48.386;11.738;2024-03-25T02:50:50;95703.16;;;1.96;100.00
48041;BME280;33815;48.386;11.738;2024-03-25T02:53:16;95698.75;;;1.87;100.00
48041;BME280;33815;48.386;11.738;2024-03-25T02:55:41;95697.22;;;1.84;100.00
48041;BME280;33815;48.386;11.738;2024-03-25T02:58:06;95683.66;;;1.82;100.00
48041;BME280;33815;48.386;11.738;2024-03-25T03:00:31;95711.22;;;1.92;100.00
48041;BME280;33815;48.386;11.738;2024-03-25T03:02:57;95704.69;;;1.76;100.00
48041;BME280;33815;48.386;11.738;2024-03-25T03:05:22;95711.91;;;1.82;100.00
48041;BME280;33815;48.386;11.738;2024-03-25T03:07:47;95716.03;;;1.74;100.00
48041;BME280;33815;48.386;11.738;2024-03-25T03:10:12;95706.66;;;1.61;100.00
48041;BME280;33815;48.386;11.738;2024-03-25T03:12:38;95706.66;;;1.61;100.00
48041;BME280;33815;48.386;11.738;2024-03-25T03:15:03;95705.63;;;1.64;100.00
48041;BME280;33815;48.386;11.738;2024-03-25T03:17:29;95722.81;;;1.63;100.00
48041;BME280;33815;48.386;11.738;2024-03-25T03:19:54;95729.22;;;1.58;100.00
48041;BME280;33815;48.386;11.738;2024-03-25T03:22:19;95725.00;;;1.57;100.00
48041;BME280;33815;48.386;11.738;2024-03-25T03:24:45;95727.47;;;1.58;100.00
48041;BME280;33815;48.386;11.738;2024-03-25T03:27:10;95726.66;;;1.58;100.00
48041;BME280;33815;48.386;11.738;2024-03-25T03:29:35;95726.53;;;1.59;100.00
48041;BME280;33815;48.386;11.738;2024-03-25T03:32:00;95725.38;;;1.63;100.00
48041;BME280;33815;48.386;11.738;2024-03-25T03:34:26;95714.97;;;1.53;100.00
48041;BME280;33815;48.386;11.738;2024-03-25T03:36:51;95729.22;;;1.58;100.00
48041;BME280;33815;48.386;11.738;2024-03-25T03:39:16;95722.09;;;1.61;100.00
48041;BME280;33815;48.386;11.738;2024-03-25T03:41:42;95716.13;;;1.49;100.00
48041;BME280;33815;48.386;11.738;2024-03-25T03:44:08;95727.94;;;1.52;100.00
48041;BME280;33815;48.386;11.738;2024-03-25T03:46:34;95706.31;;;1.32;100.00
48041;BME280;33815;48.386;11.738;2024-03-25T03:48:59;95716.09;;;1.27;100.00
48041;BME280;33815;48.386;11.738;2024-03-25T03:51:25;95730.00;;;1.35;100.00
48041;BME280;33815;48.386;11.738;2024-03-25T03:53:50;95725.88;;;1.22;100.00
48041;BME280;33815;48.386;11.738;2024-03-25T03:56:15;95728.59;;;1.43;100.00
48041;BME280;33815;48.386;11.738;2024-03-25T03:58:41;95742.41;;;1.53;100.00
48041;BME280;33815;48.386;11.738;2024-03-25T04:01:17;95735.75;;;1.50;100.00
48041;BME280;33815;48.386;11.738;2024-03-25T04:03:43;95731.78;;;1.58;100.00
48041;BME280;33815;48.386;11.738;2024-03-25T04:06:10;95728.38;;;1.57;100.00
48041;BME280;33815;48.386;11.738;2024-03-25T04:08:35;95736.44;;;1.64;100.00
48041;BME280;33815;48.386;11.738;2024-03-25T04:11:01;95731.31;;;1.52;100.00
48041;BME280;33815;48.386;11.738;2024-03-25T04:13:27;95740.78;;;1.63;100.00
48041;BME280;33815;48.386;11.738;2024-03-25T04:15:52;95741.00;;;1.60;100.00
48041;BME280;33815;48.386;11.738;2024-03-25T04:18:18;95745.44;;;1.69;100.00
48041;BME280;33815;48.386;11.738;2024-03-25T04:20:44;95747.31;;;1.67;100.00
48041;BME280;33815;48.386;11.738;2024-03-25T04:23:09;95749.03;;;1.56;100.00
48041;BME280;33815;48.386;11.738;2024-03-25T04:25:35;95753.00;;;1.48;100.00
48041;BME280;33815;48.386;11.738;2024-03-25T04:28:03;95759.78;;;1.38;100.00
48041;BME280;33815;48.386;11.738;2024-03-25T04:30:28;95760.56;;;1.39;100.00
48041;BME280;33815;48.386;11.738;2024-03-25T04:32:53;95758.72;;;1.29;100.00
48041;BME280;33815;48.386;11.738;2024-03-25T04:35:19;95740.47;;;1.10;100.00
48041;BME280;33815;48.386;11.738;2024-03-25T04:37:44;95758.34;;;1.23;100.00
48041;BME280;33815;48.386;11.738;2024-03-25T04:40:10;95753.63;;;1.16;100.00
48041;BME280;33815;48.386;11.738;2024-03-25T04:42:39;95741.50;;;1.07;100.00
48041;BME280;33815;48.386;11.738;2024-03-25T04:45:05;95756.66;;;1.10;100.00
48041;BME280;33815;48.386;11.738;2024-03-25T04:47:30;95758.44;;;1.21;100.00
48041;BME280;33815;48.386;11.738;2024-03-25T04:49:55;95758.53;;;1.08;100.00
48041;BME280;33815;48.386;11.738;2024-03-25T04:52:20;95738.41;;;0.91;100.00
48041;BME280;33815;48.386;11.738;2024-03-25T04:54:48;95759.09;;;1.00;100.00
48041;BME280;33815;48.386;11.738;2024-03-25T04:57:14;95740.38;;;0.87;100.00
48041;BME280;33815;48.386;11.738;2024-03-25T04:59:39;95750.38;;;0.79;100.00
48041;BME280;33815;48.386;11.738;2024-03-25T05:02:04;95743.66;;;0.65;100.00
48041;BME280;33815;48.386;11.738;2024-03-25T05:04:29;95749.56;;;0.54;100.00
48041;BME280;33815;48.386;11.738;2024-03-25T05:06:55;95760.72;;;0.53;100.00
48041;BME280;33815;48.386;11.738;2024-03-25T05:09:20;95769.44;;;0.50;100.00
48041;BME280;33815;48.386;11.738;2024-03-25T05:11:45;95764.72;;;0.33;100.00
48041;BME280;33815;48.386;11.738;2024-03-25T05:14:11;95763.06;;;0.32;100.00
48041;BME280;33815;48.386;11.738;2024-03-25T05:16:36;95773.88;;;0.48;100.00
48041;BME280;33815;48.386;11.738;2024-03-25T05:19:02;95778.03;;;0.38;100.00
48041;BME280;33815;48.386;11.738;2024-03-25T05:21:27;95770.56;;;0.22;100.00
48041;BME280;33815;48.386;11.738;2024-03-25T05:23:52;95766.88;;;0.26;100.00
48041;BME280;33815;48.386;11.738;2024-03-25T05:26:17;95763.72;;;0.23;100.00
48041;BME280;33815;48.386;11.738;2024-03-25T05:28:43;95786.13;;;0.32;100.00
48041;BME280;33815;48.386;11.738;2024-03-25T05:31:09;95789.72;;;0.29;100.00
48041;BME280;33815;48.386;11.738;2024-03-25T05:33:34;95771.59;;;0.20;100.00
48041;BME280;33815;48.386;11.738;2024-03-25T05:36:00;95791.66;;;0.39;100.00
48041;BME280;33815;48.386;11.738;2024-03-25T05:38:29;95795.16;;;0.25;100.00
48041;BME280;33815;48.386;11.738;2024-03-25T05:40:54;95798.72;;;0.35;100.00
48041;BME280;33815;48.386;11.738;2024-03-25T05:43:20;95779.47;;;0.29;100.00
48041;BME280;33815;48.386;11.738;2024-03-25T05:45:55;95805.28;;;0.39;100.00
48041;BME280;33815;48.386;11.738;2024-03-25T05:48:21;95799.00;;;0.43;100.00
48041;BME280;33815;48.386;11.738;2024-03-25T05:50:46;95787.09;;;0.55;100.00
48041;BME280;33815;48.386;11.738;2024-03-25T05:53:21;95806.41;;;0.72;100.00
48041;BME280;33815;48.386;11.738;2024-03-25T05:55:46;95772.03;;;0.50;100.00
48041;BME280;33815;48.386;11.738;2024-03-25T05:58:12;95808.00;;;0.86;100.00
48041;BME280;33815;48.386;11.738;2024-03-25T06:00:37;95791.16;;;0.71;100.00
48041;BME280;33815;48.386;11.738;2024-03-25T06:03:03;95793.50;;;0.74;100.00
48041;BME280;33815;48.386;11.738;2024-03-25T06:05:29;95796.75;;;1.00;100.00
48041;BME280;33815;48.386;11.738;2024-03-25T06:07:54;95795.00;;;1.00;100.00
48041;BME280;33815;48.386;11.738;2024-03-25T06:10:19;95798.22;;;1.15;100.00
48041;BME280;33815;48.386;11.738;2024-03-25T06:12:44;95811.25;;;1.36;100.00
48041;BME280;33815;48.386;11.738;2024-03-25T06:15:09;95811.69;;;1.42;100.00
48041;BME280;33815;48.386;11.738;2024-03-25T06:17:35;95814.25;;;1.42;100.00
48041;BME280;33815;48.386;11.738;2024-03-25T06:20:01;95808.25;;;1.65;100.00
48041;BME280;33815;48.386;11.738;2024-03-25T06:22:26;95807.47;;;1.87;100.00
48041;BME280;33815;48.386;11.738;2024-03-25T06:24:51;95798.84;;;2.00;100.00
48041;BME280;33815;48.386;11.738;2024-03-25T06:27:16;95805.16;;;2.18;100.00
48041;BME280;33815;48.386;11.738;2024-03-25T06:29:42;95808.31;;;2.33;100.00
48041;BME280;33815;48.386;11.738;2024-03-25T06:32:09;95831.19;;;2.48;100.00
48041;BME280;33815;48.386;11.738;2024-03-25T06:34:52;95817.78;;;2.44;100.00
48041;BME280;33815;48.386;11.738;2024-03-25T06:37:18;95820.31;;;2.33;100.00
48041;BME280;33815;48.386;11.738;2024-03-25T06:39:43;95818.81;;;2.53;100.00
48041;BME280;33815;48.386;11.738;2024-03-25T06:42:08;95822.78;;;2.46;100.00
48041;BME280;33815;48.386;11.738;2024-03-25T06:44:34;95815.06;;;2.57;100.00
48041;BME280;33815;48.386;11.738;2024-03-25T06:46:59;95833.22;;;2.88;100.00
48041;BME280;33815;48.386;11.738;2024-03-25T06:49:24;95830.50;;;3.01;100.00
48041;BME280;33815;48.386;11.738;2024-03-25T06:51:49;95814.34;;;2.99;100.00
48041;BME280;33815;48.386;11.738;2024-03-25T06:54:15;95819.31;;;3.23;100.00
48041;BME280;33815;48.386;11.738;2024-03-25T06:56:40;95804.47;;;3.15;100.00
48041;BME280;33815;48.386;11.738;2024-03-25T06:59:06;95800.09;;;3.27;100.00
48041;BME280;33815;48.386;11.738;2024-03-25T07:01:32;95803.03;;;3.43;100.00
48041;BME280;33815;48.386;11.738;2024-03-25T07:03:57;95804.69;;;3.45;100.00
48041;BME280;33815;48.386;11.738;2024-03-25T07:06:22;95816.13;;;3.52;100.00
48041;BME280;33815;48.386;11.738;2024-03-25T07:08:48;95824.09;;;3.49;100.00
48041;BME280;33815;48.386;11.738;2024-03-25T07:11:13;95824.50;;;3.65;100.00
48041;BME280;33815;48.386;11.738;2024-03-25T07:13:39;95816.75;;;3.65;100.00
48041;BME280;33815;48.386;11.738;2024-03-25T07:16:04;95830.97;;;3.81;100.00
48041;BME280;33815;48.386;11.738;2024-03-25T07:18:29;95826.19;;;3.76;100.00
48041;BME280;33815;48.386;11.738;2024-03-25T07:20:54;95801.16;;;3.67;100.00
48041;BME280;33815;48.386;11.738;2024-03-25T07:23:20;95829.44;;;3.78;100.00
48041;BME280;33815;48.386;11.738;2024-03-25T07:25:45;95829.53;;;4.19;100.00
48041;BME280;33815;48.386;11.738;2024-03-25T07:28:10;95805.75;;;4.66;100.00
48041;BME280;33815;48.386;11.738;2024-03-25T07:30:35;95821.59;;;5.51;96.01
48041;BME280;33815;48.386;11.738;2024-03-25T07:33:01;95811.22;;;5.80;89.92
48041;BME280;33815;48.386;11.738;2024-03-25T07:35:26;95810.59;;;5.48;88.16
48041;BME280;33815;48.386;11.738;2024-03-25T07:37:52;95808.09;;;5.66;89.23
48041;BME280;33815;48.386;11.738;2024-03-25T07:40:21;95813.72;;;5.42;87.96
48041;BME280;33815;48.386;11.738;2024-03-25T07:42:47;95821.47;;;5.32;90.18
48041;BME280;33815;48.386;11.738;2024-03-25T07:45:14;95806.53;;;5.17;92.47
48041;BME280;33815;48.386;11.738;2024-03-25T07:47:39;95821.34;;;5.24;91.89
48041;BME280;33815;48.386;11.738;2024-03-25T07:50:05;95820.94;;;5.09;92.62
48041;BME280;33815;48.386;11.738;2024-03-25T07:52:31;95826.34;;;5.16;93.07
48041;BME280;33815;48.386;11.738;2024-03-25T07:54:56;95822.16;;;5.05;90.34
48041;BME280;33815;48.386;11.738;2024-03-25T07:57:22;95825.97;;;5.11;91.32
48041;BME280;33815;48.386;11.738;2024-03-25T07:59:47;95818.38;;;5.19;96.10
48041;BME280;33815;48.386;11.738;2024-03-25T08:02:13;95812.06;;;5.12;90.42
48041;BME280;33815;48.386;11.738;2024-03-25T08:04:39;95825.41;;;5.17;90.85
48041;BME280;33815;48.386;11.738;2024-03-25T08:07:04;95831.16;;;5.21;89.72
48041;BME280;33815;48.386;11.738;2024-03-25T08:09:30;95823.91;;;5.34;89.37
48041;BME280;33815;48.386;11.738;2024-03-25T08:11:55;95836.19;;;5.32;88.71
48041;BME280;33815;48.386;11.738;2024-03-25T08:14:20;95833.31;;;5.35;87.91
48041;BME280;33815;48.386;11.738;2024-03-25T08:16:46;95809.91;;;5.27;88.81
48041;BME280;33815;48.386;11.738;2024-03-25T08:19:11;95822.16;;;5.64;93.80
48041;BME280;33815;48.386;11.738;2024-03-25T08:21:36;95830.72;;;5.64;85.21
48041;BME280;33815;48.386;11.738;2024-03-25T08:24:02;95821.69;;;6.08;89.14
48041;BME280;33815;48.386;11.738;2024-03-25T08:26:28;95821.09;;;6.14;85.07
48041;BME280;33815;48.386;11.738;2024-03-25T08:28:53;95811.34;;;6.63;83.78
48041;BME280;33815;48.386;11.738;2024-03-25T08:31:18;95821.84;;;6.90;84.29
48041;BME280;33815;48.386;11.738;2024-03-25T08:33:44;95817.72;;;6.69;79.76
48041;BME280;33815;48.386;11.738;2024-03-25T08:36:09;95818.06;;;6.84;80.34
48041;BME280;33815;48.386;11.738;2024-03-25T08:38:35;95816.53;;;6.63;79.57
48041;BME280;33815;48.386;11.738;2024-03-25T08:41:00;95811.88;;;6.67;79.77
48041;BME280;33815;48.386;11.738;2024-03-25T08:43:25;95812.38;;;6.80;81.89
48041;BME280;33815;48.386;11.738;2024-03-25T08:45:51;95817.31;;;6.74;78.89
48041;BME280;33815;48.386;11.738;2024-03-25T08:48:16;95822.88;;;6.51;77.74
48041;BME280;33815;48.386;11.738;2024-03-25T08:50:42;95825.16;;;6.26;78.45
48041;BME280;33815;48.386;11.738;2024-03-25T08:53:07;95816.75;;;6.42;79.72
48041;BME280;33815;48.386;11.738;2024-03-25T08:55:33;95811.59;;;6.14;79.42
48041;BME280;33815;48.386;11.738;2024-03-25T08:57:58;95820.66;;;6.56;78.93
48041;BME280;33815;48.386;11.738;2024-03-25T09:00:27;95815.00;;;6.89;79.19
48041;BME280;33815;48.386;11.738;2024-03-25T09:02:53;95820.72;;;6.92;76.03
48041;BME280;33815;48.386;11.738;2024-03-25T09:05:19;95814.09;;;7.26;77.98
48041;BME280;33815;48.386;11.738;2024-03-25T09:07:45;95813.44;;;7.86;75.18
48041;BME280;33815;48.386;11.738;2024-03-25T09:10:11;95803.78;;;8.31;73.62
48041;BME280;33815;48.386;11.738;2024-03-25T09:12:55;95806.94;;;8.08;73.98
48041;BME280;33815;48.386;11.738;2024-03-25T09:15:20;95790.97;;;8.72;70.52
48041;BME280;33815;48.386;11.738;2024-03-25T09:17:45;95795.59;;;9.03;67.85
48041;BME280;33815;48.386;11.738;2024-03-25T09:20:11;95779.47;;;8.74;66.66
48041;BME280;33815;48.386;11.738;2024-03-25T09:22:43;95776.28;;;9.05;65.90
48041;BME280;33815;48.386;11.738;2024-03-25T09:25:08;95771.91;;;9.39;66.69
48041;BME280;33815;48.386;11.738;2024-03-25T09:27:33;95779.69;;;8.98;64.80
48041;BME280;33815;48.386;11.738;2024-03-25T09:29:59;95787.91;;;8.68;66.41
48041;BME280;33815;48.386;11.738;2024-03-25T09:32:25;95784.88;;;8.47;66.08
48041;BME280;33815;48.386;11.738;2024-03-25T09:34:51;95774.53;;;8.55;65.42
48041;BME280;33815;48.386;11.738;2024-03-25T09:37:17;95755.81;;;8.43;64.72
48041;BME280;33815;48.386;11.738;2024-03-25T09:39:42;95782.50;;;8.27;66.39
48041;BME280;33815;48.386;11.738;2024-03-25T09:42:08;95788.38;;;7.77;66.47
48041;BME280;33815;48.386;11.738;2024-03-25T09:44:33;95782.13;;;7.61;66.69
48041;BME280;33815;48.386;11.738;2024-03-25T09:47:00;95797.09;;;7.94;72.29
48041;BME280;33815;48.386;11.738;2024-03-25T09:49:26;95773.28;;;8.33;65.93
48041;BME280;33815;48.386;11.738;2024-03-25T09:51:52;95773.63;;;8.03;65.98
48041;BME280;33815;48.386;11.738;2024-03-25T09:54:18;95765.09;;;7.85;63.48
48041;BME280;33815;48.386;11.738;2024-03-25T09:56:43;95762.03;;;7.89;65.02
48041;BME280;33815;48.386;11.738;2024-03-25T09:59:09;95770.84;;;8.31;67.20
48041;BME280;33815;48.386;11.738;2024-03-25T10:01:34;95771.28;;;9.29;69.72
48041;BME280;33815;48.386;11.738;2024-03-25T10:04:00;95750.72;;;9.91;62.09
48041;BME280;33815;48.386;11.738;2024-03-25T10:06:25;95741.06;;;10.08;61.22
48041;BME280;33815;48.386;11.738;2024-03-25T10:08:53;95710.72;;;10.24;55.11
48041;BME280;33815;48.386;11.738;2024-03-25T10:11:19;95721.03;;;10.17;55.94
48041;BME280;33815;48.386;11.738;2024-03-25T10:13:44;95724.41;;;10.66;56.48
48041;BME280;33815;48.386;11.738;2024-03-25T10:16:10;95722.22;;;11.24;55.05
48041;BME280;33815;48.386;11.738;2024-03-25T10:18:35;95721.47;;;10.92;53.84
48041;BME280;33815;48.386;11.738;2024-03-25T10:21:01;95702.28;;;10.22;53.43
48041;BME280;33815;48.386;11.738;2024-03-25T10:23:28;95719.03;;;9.71;55.41
48041;BME280;33815;48.386;11.738;2024-03-25T10:25:54;95715.50;;;9.48;54.76
48041;BME280;33815;48.386;11.738;2024-03-25T10:28:20;95721.88;;;9.20;56.22
48041;BME280;33815;48.386;11.738;2024-03-25T10:30:45;95729.19;;;9.33;58.80
48041;BME280;33815;48.386;11.738;2024-03-25T10:33:11;95699.28;;;8.80;57.99
48041;BME280;33815;48.386;11.738;2024-03-25T10:35:37;95714.03;;;8.87;56.37
48041;BME280;33815;48.386;11.738;2024-03-25T10:38:04;95717.09;;;8.66;57.85
48041;BME280;33815;48.386;11.738;2024-03-25T10:40:34;95709.31;;;8.74;57.02
48041;BME280;33815;48.386;11.738;2024-03-25T10:43:05;95710.16;;;8.32;56.53
48041;BME280;33815;48.386;11.738;2024-03-25T10:45:41;95706.53;;;8.17;57.86
48041;BME280;33815;48.386;11.738;2024-03-25T10:48:17;95704.28;;;8.14;58.76
48041;BME280;33815;48.386;11.738;2024-03-25T10:50:45;95703.56;;;8.03;59.23
48041;BME280;33815;48.386;11.738;2024-03-25T10:53:11;95693.88;;;8.14;57.26
48041;BME280;33815;48.386;11.738;2024-03-25T10:55:37;95685.59;;;8.69;59.39
48041;BME280;33815;48.386;11.738;2024-03-25T10:58:04;95675.75;;;10.18;55.89
48041;BME280;33815;48.386;11.738;2024-03-25T11:00:29;95658.22;;;10.75;53.25
48041;BME280;33815;48.386;11.738;2024-03-25T11:02:55;95630.50;;;11.65;50.21
48041;BME280;33815;48.386;11.738;2024-03-25T11:05:21;95629.06;;;12.44;45.18
48041;BME280;33815;48.386;11.738;2024-03-25T11:07:47;95631.53;;;12.67;47.49
48041;BME280;33815;48.386;11.738;2024-03-25T11:10:13;95620.31;;;12.51;45.79
48041;BME280;33815;48.386;11.738;2024-03-25T11:12:41;95614.44;;;12.28;46.23
48041;BME280;33815;48.386;11.738;2024-03-25T11:15:07;95614.41;;;12.43;46.39
48041;BME280;33815;48.386;11.738;2024-03-25T11:17:33;95624.16;;;12.99;48.27
48041;BME280;33815;48.386;11.738;2024-03-25T11:20:12;95590.09;;;12.92;42.24
48041;BME280;33815;48.386;11.738;2024-03-25T11:22:51;95595.63;;;13.04;45.28
48041;BME280;33815;48.386;11.738;2024-03-25T11:25:17;95588.97;;;13.01;43.89
48041;BME280;33815;48.386;11.738;2024-03-25T11:27:43;95590.03;;;12.85;40.02
48041;BME280;33815;48.386;11.738;2024-03-25T11:30:10;95571.34;;;12.39;39.20
48041;BME280;33815;48.386;11.738;2024-03-25T11:32:46;95578.81;;;12.42;41.81
48041;BME280;33815;48.386;11.738;2024-03-25T11:35:16;95562.72;;;12.88;39.50
48041;BME280;33815;48.386;11.738;2024-03-25T11:37:42;95557.38;;;12.75;40.92
48041;BME280;33815;48.386;11.738;2024-03-25T11:40:08;95558.31;;;12.24;40.68
48041;BME280;33815;48.386;11.738;2024-03-25T11:42:38;95561.69;;;11.51;42.90
48041;BME280;33815;48.386;11.738;2024-03-25T11:45:04;95553.97;;;10.75;43.22
48041;BME280;33815;48.386;11.738;2024-03-25T11:47:30;95557.84;;;10.09;43.98
48041;BME280;33815;48.386;11.738;2024-03-25T11:49:56;95565.03;;;10.77;48.56
48041;BME280;33815;48.386;11.738;2024-03-25T11:52:21;95548.53;;;11.00;44.09
48041;BME280;33815;48.386;11.738;2024-03-25T11:54:54;95553.69;;;11.89;47.36
48041;BME280;33815;48.386;11.738;2024-03-25T11:57:20;95527.72;;;12.39;44.18
48041;BME280;33815;48.386;11.738;2024-03-25T11:59:46;95522.72;;;12.66;43.09
48041;BME280;33815;48.386;11.738;2024-03-25T12:02:13;95512.41;;;13.56;44.09
48041;BME280;33815;48.386;11.738;2024-03-25T12:04:42;95530.28;;;14.01;43.44
48041;BME280;33815;48.386;11.738;2024-03-25T12:07:07;95524.47;;;13.99;41.06
48041;BME280;33815;48.386;11.738;2024-03-25T12:09:32;95519.16;;;13.85;38.50
48041;BME280;33815;48.386;11.738;2024-03-25T12:12:16;95518.03;;;14.08;38.83
48041;BME280;33815;48.386;11.738;2024-03-25T12:14:42;95513.34;;;13.83;38.54
48041;BME280;33815;48.386;11.738;2024-03-25T12:17:07;95487.16;;;13.35;36.58
48041;BME280;33815;48.386;11.738;2024-03-25T12:19:33;95488.78;;;13.84;39.72
48041;BME280;33815;48.386;11.738;2024-03-25T12:22:01;95492.88;;;14.27;37.75
48041;BME280;33815;48.386;11.738;2024-03-25T12:24:28;95484.69;;;13.75;37.30
48041;BME280;33815;48.386;11.738;2024-03-25T12:26:54;95490.59;;;13.91;38.00
48041;BME280;33815;48.386;11.738;2024-03-25T12:29:19;95484.00;;;14.35;40.04
48041;BME280;33815;48.386;11.738;2024-03-25T12:31:54;95475.94;;;14.56;36.47
48041;BME280;33815;48.386;11.738;2024-03-25T12:34:19;95467.25;;;14.36;37.44
48041;BME280;33815;48.386;11.738;2024-03-25T12:36:44;95461.09;;;13.62;35.22
48041;BME280;33815;48.386;11.738;2024-03-25T12:39:15;95459.31;;;13.27;35.78
48041;BME280;33815;48.386;11.738;2024-03-25T12:41:40;95471.06;;;13.03;37.66
48041;BME280;33815;48.386;11.738;2024-03-25T12:44:05;95470.03;;;13.94;39.05
48041;BME280;33815;48.386;11.738;2024-03-25T12:46:31;95468.19;;;13.81;36.04